Time;durP1;ratioP1;P1;durP2;ratioP2;P2;SDS_P1;SDS_P2;PMS_P1;PMS_P2;Temp;Humidity;BMP_temperature;BMP_pressure;BME280_temperature;BME280_humidity;BME280_pressure;Samples;Min_cycle;Max_cycle;Signal;HPM_P1;HPM_P2
2021/07/07 00:00:15;;;;;;;5.20;4.15;;;;;;;30.57;29.24;94407.19;5049856;28;20045;-52
2021/07/07 00:02:42;;;;;;;6.53;4.38;;;;;;;30.33;29.83;94409.16;5055242;28;20363;-56
2021/07/07 00:05:11;;;;;;;4.68;4.25;;;;;;;30.17;30.45;94405.56;5023606;28;20052;-51
2021/07/07 00:07:39;;;;;;;4.80;4.03;;;;;;;30.73;29.64;94409.25;5035736;28;20045;-52
2021/07/07 00:10:09;;;;;;;4.78;4.10;;;;;;;30.80;29.71;94402.97;5049199;28;20045;-51
2021/07/07 00:12:36;;;;;;;4.65;4.25;;;;;;;30.32;30.18;94401.47;5038324;28;20669;-50
2021/07/07 00:15:06;;;;;;;3.97;3.65;;;;;;;30.46;29.59;94406.63;5054726;28;20052;-55
2021/07/07 00:17:33;;;;;;;4.30;3.90;;;;;;;30.03;30.67;94407.34;5055325;28;20037;-46
2021/07/07 00:20:01;;;;;;;4.35;3.92;;;;;;;29.96;30.58;94407.44;5055170;28;20052;-51
2021/07/07 00:22:29;;;;;;;4.82;4.30;;;;;;;29.38;31.63;94404.00;5051028;28;20355;-52
2021/07/07 00:24:56;;;;;;;4.43;4.03;;;;;;;30.33;29.66;94411.84;5053790;28;20048;-52
2021/07/07 00:27:24;;;;;;;6.35;4.50;;;;;;;29.64;31.26;94402.50;5053919;28;20041;-50
2021/07/07 00:29:53;;;;;;;4.78;4.28;;;;;;;29.97;30.67;94408.97;5054979;28;20483;-50
2021/07/07 00:32:20;;;;;;;4.40;3.78;;;;;;;30.33;30.13;94408.41;5055556;28;20079;-47
2021/07/07 00:34:48;;;;;;;4.65;4.25;;;;;;;29.56;31.53;94403.78;5053586;28;20068;-46
2021/07/07 00:37:15;;;;;;;4.45;4.03;;;;;;;29.60;31.27;94401.03;5037534;28;20052;-48
2021/07/07 00:39:42;;;;;;;5.40;4.50;;;;;;;29.38;31.83;94403.22;5055046;28;20045;-46
2021/07/07 00:42:10;;;;;;;4.97;4.47;;;;;;;28.99;32.46;94411.81;5046421;28;20050;-54
2021/07/07 00:44:40;;;;;;;5.15;4.65;;;;;;;28.97;32.63;94408.75;5051367;28;20431;-53
2021/07/07 00:47:07;;;;;;;5.90;4.65;;;;;;;28.94;32.80;94412.25;5054862;28;20049;-51
2021/07/07 00:49:34;;;;;;;4.53;4.13;;;;;;;29.29;32.32;94403.75;5054428;28;20048;-52
2021/07/07 00:52:03;;;;;;;4.40;4.00;;;;;;;29.66;31.16;94410.19;5054912;28;20443;-50
2021/07/07 00:54:31;;;;;;;5.72;4.18;;;;;;;29.40;31.51;94408.97;5054253;28;20049;-47
2021/07/07 00:57:00;;;;;;;4.70;4.28;;;;;;;29.87;31.00;94407.16;5050135;28;20060;-47
2021/07/07 00:59:29;;;;;;;4.53;4.13;;;;;;;29.56;31.67;94405.72;5054848;28;20478;-48
2021/07/07 01:01:56;;;;;;;4.40;4.00;;;;;;;29.10;32.46;94412.44;5054793;28;20057;-48
2021/07/07 01:04:24;;;;;;;4.38;3.97;;;;;;;30.17;30.78;94408.28;5052097;28;20037;-52
2021/07/07 01:06:51;;;;;;;4.72;4.30;;;;;;;29.10;32.58;94412.44;5054274;28;20463;-52
2021/07/07 01:09:18;;;;;;;5.20;4.70;;;;;;;28.30;34.12;94410.19;5049063;28;20049;-54
2021/07/07 01:11:45;;;;;;;5.57;5.07;;;;;;;28.30;34.08;94404.81;5034591;28;20045;-50
2021/07/07 01:14:13;;;;;;;5.93;5.20;;;;;;;28.39;33.94;94413.19;5046943;28;20435;-49
2021/07/07 01:16:44;;;;;;;5.10;4.60;;;;;;;28.89;32.65;94412.69;5053504;28;20048;-51
2021/07/07 01:19:14;;;;;;;7.45;4.72;;;;;;;28.65;32.92;94415.22;5054521;28;20060;-49
2021/07/07 01:21:49;;;;;;;5.43;4.90;;;;;;;29.27;32.14;94416.06;5053934;28;20053;-50
2021/07/07 01:24:19;;;;;;;5.20;4.70;;;;;;;29.03;32.47;94413.28;5048708;28;20077;-53
2021/07/07 01:26:47;;;;;;;6.40;4.47;;;;;;;29.05;32.32;94416.34;5052459;28;20379;-52
2021/07/07 01:29:15;;;;;;;5.82;4.55;;;;;;;29.33;31.97;94415.22;5054096;28;20061;-51
2021/07/07 01:31:43;;;;;;;5.13;4.63;;;;;;;28.53;33.67;94418.41;5050410;28;20053;-52
2021/07/07 01:34:10;;;;;;;4.90;4.50;;;;;;;28.87;33.01;94415.78;5045173;28;20045;-54
2021/07/07 01:36:38;;;;;;;5.30;4.78;;;;;;;28.97;32.58;94419.53;5044130;28;20076;-51
2021/07/07 01:39:07;;;;;;;7.38;4.70;;;;;;;29.18;32.08;94419.28;5034402;28;20053;-51
2021/07/07 01:41:35;;;;;;;4.97;4.53;;;;;;;28.67;32.78;94423.66;5040005;28;20049;-52
2021/07/07 01:44:03;;;;;;;4.82;4.43;;;;;;;29.20;32.22;94422.31;5053435;28;20056;-51
2021/07/07 01:46:30;;;;;;;5.00;4.50;;;;;;;28.68;33.18;94425.19;5053906;28;20055;-50
2021/07/07 01:48:57;;;;;;;5.63;4.93;;;;;;;29.14;32.35;94421.22;5054099;28;20045;-58
2021/07/07 01:51:24;;;;;;;6.13;4.80;;;;;;;29.94;31.26;94431.34;5052934;28;20045;-46
2021/07/07 01:53:51;;;;;;;5.20;4.70;;;;;;;28.61;33.32;94430.63;5054036;28;20048;-48
2021/07/07 01:56:18;;;;;;;5.20;4.65;;;;;;;28.84;33.12;94421.94;5049958;28;20053;-51
2021/07/07 01:58:45;;;;;;;7.25;4.88;;;;;;;28.83;33.11;94431.16;5054838;28;20051;-49
2021/07/07 02:01:13;;;;;;;5.30;4.80;;;;;;;28.17;34.46;94429.47;5056609;28;20068;-47
2021/07/07 02:03:41;;;;;;;5.28;4.78;;;;;;;28.18;34.59;94427.53;5057540;28;20041;-49
2021/07/07 02:06:08;;;;;;;5.47;4.95;;;;;;;27.96;34.63;94435.00;5056727;28;20048;-48
2021/07/07 02:08:35;;;;;;;6.80;4.90;;;;;;;29.34;32.15;94435.59;5039500;28;20044;-50
2021/07/07 02:11:02;;;;;;;5.68;5.18;;;;;;;28.21;34.11;94429.44;5057577;28;20056;-50
2021/07/07 02:13:29;;;;;;;5.55;5.05;;;;;;;28.14;34.69;94432.94;5049993;28;20053;-45
2021/07/07 02:15:56;;;;;;;6.60;5.40;;;;;;;28.44;33.72;94436.94;5041428;28;20056;-52
2021/07/07 02:18:23;;;;;;;6.03;5.47;;;;;;;28.59;33.51;94449.06;5053879;28;20049;-49
2021/07/07 02:20:51;;;;;;;7.10;5.35;;;;;;;28.19;34.60;94459.41;5037783;28;20041;-57
2021/07/07 02:23:18;;;;;;;8.10;5.28;;;;;;;29.01;32.94;94458.66;5056239;28;20048;-47
2021/07/07 02:25:46;;;;;;;5.32;4.82;;;;;;;28.29;33.99;94451.66;5057206;28;20051;-47
2021/07/07 02:28:18;;;;;;;6.50;5.32;;;;;;;28.54;33.56;94457.59;5057094;28;20060;-51
2021/07/07 02:30:46;;;;;;;6.15;5.07;;;;;;;28.58;33.43;94452.94;5056799;28;20052;-49
2021/07/07 20:09:14;;;;;;;14.20;9.65;;;;;;;30.02;35.78;94764.25;5092122;27;20356;-52
